Time;durP1;ratioP1;P1;durP2;ratioP2;P2;SDS_P1;SDS_P2;PMS_P1;PMS_P2;Temp;Humidity;BMP_temperature;BMP_pressure;BME280_temperature;BME280_humidity;BME280_pressure;Samples;Min_cycle;Max_cycle;Signal;HPM_P1;HPM_P2
2021/03/01 00:02:15;;;;;;;26.03;15.13;;;2.70;99.90;;;;;;5072963;28;20469;-52
2021/03/01 00:04:41;;;;;;;33.10;15.30;;;2.70;99.90;;;;;;5073340;28;20446;-53
2021/03/01 00:07:08;;;;;;;25.63;15.07;;;2.60;99.90;;;;;;5073510;28;20451;-52
2021/03/01 00:09:34;;;;;;;25.97;15.10;;;2.70;99.90;;;;;;5073280;28;20462;-53
2021/03/01 00:12:01;;;;;;;26.20;14.87;;;2.60;99.90;;;;;;5072561;28;20487;-52
2021/03/01 00:14:28;;;;;;;30.90;15.73;;;2.60;99.90;;;;;;5073026;28;20504;-52
2021/03/01 00:16:54;;;;;;;25.07;14.80;;;2.60;99.90;;;;;;5073550;28;20454;-52
2021/03/01 00:19:22;;;;;;;28.73;15.40;;;2.50;99.90;;;;;;5073116;28;20451;-52
2021/03/01 00:21:48;;;;;;;21.50;14.80;;;2.60;99.90;;;;;;5073196;28;20466;-53
2021/03/01 00:24:15;;;;;;;27.63;15.67;;;2.40;99.90;;;;;;5073062;28;20460;-52
2021/03/01 00:26:41;;;;;;;25.60;15.10;;;2.40;99.90;;;;;;5073119;28;20960;-52
2021/03/01 00:29:08;;;;;;;25.93;14.57;;;2.40;99.90;;;;;;5072658;28;20501;-52
2021/03/01 00:31:35;;;;;;;25.20;14.17;;;2.40;99.90;;;;;;5053131;28;20495;-52
2021/03/01 00:34:02;;;;;;;25.87;15.27;;;2.50;99.90;;;;;;5053028;28;20448;-52
2021/03/01 00:36:29;;;;;;;28.47;15.37;;;2.20;99.90;;;;;;5052971;28;20447;-53
2021/03/01 00:38:56;;;;;;;28.40;15.03;;;2.20;99.90;;;;;;5060356;28;20454;-52
2021/03/01 00:41:22;;;;;;;26.27;14.97;;;2.30;99.90;;;;;;5072698;28;20471;-52
2021/03/01 00:43:49;;;;;;;28.17;14.97;;;2.30;99.90;;;;;;5073166;28;20523;-52
2021/03/01 00:46:15;;;;;;;24.27;14.63;;;2.30;99.90;;;;;;5095645;22;20509;-50
2021/03/01 00:48:42;;;;;;;26.60;14.60;;;2.30;99.90;;;;;;5072295;28;20441;-50
2021/03/01 00:51:08;;;;;;;26.33;14.87;;;2.30;99.90;;;;;;5072111;28;20481;-50
2021/03/01 00:53:36;;;;;;;27.50;15.87;;;2.20;99.90;;;;;;5072274;28;20448;-50
2021/03/01 00:56:02;;;;;;;27.47;15.10;;;2.20;99.90;;;;;;5072343;28;20467;-50
2021/03/01 00:58:29;;;;;;;32.30;15.97;;;2.20;99.90;;;;;;5072040;28;20465;-50
2021/03/01 01:00:56;;;;;;;32.00;16.30;;;2.10;99.90;;;;;;5072287;28;20446;-50
2021/03/01 01:03:22;;;;;;;29.47;15.80;;;2.00;99.90;;;;;;5070601;28;20447;-50
2021/03/01 01:05:49;;;;;;;31.03;16.17;;;2.00;99.90;;;;;;5071667;28;20466;-50
2021/03/01 01:08:15;;;;;;;35.00;16.83;;;2.10;99.90;;;;;;5071564;28;20450;-50
2021/03/01 01:10:43;;;;;;;27.10;15.17;;;2.10;99.90;;;;;;5052373;28;20475;-50
2021/03/01 01:13:10;;;;;;;31.90;15.70;;;2.10;99.90;;;;;;5062736;28;20458;-50
2021/03/01 01:15:36;;;;;;;26.60;16.27;;;2.10;99.90;;;;;;5071596;28;20834;-50
2021/03/01 01:18:05;;;;;;;30.83;17.03;;;2.10;99.90;;;;;;5056792;28;20462;-50
2021/03/01 01:20:32;;;;;;;31.83;16.43;;;2.10;99.90;;;;;;5052912;28;20474;-50
2021/03/01 01:22:58;;;;;;;31.73;15.30;;;2.00;99.90;;;;;;5051824;28;20866;-50
2021/03/01 01:25:25;;;;;;;32.33;16.00;;;2.10;99.90;;;;;;5051394;28;20482;-50
2021/03/01 01:27:52;;;;;;;28.57;15.50;;;2.00;99.90;;;;;;5056192;28;20448;-50
2021/03/01 01:30:21;;;;;;;35.17;16.90;;;2.00;99.90;;;;;;5067568;28;20866;-50
2021/03/01 01:32:48;;;;;;;28.63;15.63;;;2.00;99.90;;;;;;5071399;28;20453;-50
2021/03/01 01:35:16;;;;;;;29.30;16.87;;;2.00;99.90;;;;;;5058603;28;20470;-50
2021/03/01 01:37:43;;;;;;;34.67;17.10;;;1.80;99.90;;;;;;5051607;28;20952;-50
2021/03/01 01:40:12;;;;;;;31.07;16.17;;;1.80;99.90;;;;;;5065961;28;20470;-50
2021/03/01 01:42:39;;;;;;;27.97;15.93;;;1.80;99.90;;;;;;5052869;28;20455;-50
2021/03/01 01:45:11;;;;;;;25.23;14.80;;;1.80;99.90;;;;;;5050878;28;20479;-50
2021/03/01 01:47:38;;;;;;;30.23;14.63;;;1.80;99.90;;;;;;5051430;28;20446;-50
2021/03/01 01:50:05;;;;;;;30.60;16.13;;;1.80;99.90;;;;;;5065419;28;20453;-49
2021/03/01 01:52:32;;;;;;;25.47;14.90;;;1.90;99.90;;;;;;5070335;28;20482;-50
2021/03/01 01:54:59;;;;;;;25.63;14.77;;;1.70;99.90;;;;;;5070104;28;20463;-50
2021/03/01 01:57:26;;;;;;;29.30;15.80;;;1.70;99.90;;;;;;5069131;28;20459;-50
2021/03/01 01:59:53;;;;;;;31.07;15.53;;;1.70;99.90;;;;;;5067627;28;20509;-49
2021/03/01 02:02:21;;;;;;;33.30;15.87;;;1.70;99.90;;;;;;5057335;28;20450;-50
2021/03/01 02:04:52;;;;;;;29.67;15.97;;;1.80;99.90;;;;;;5070382;28;20453;-50
2021/03/01 02:07:26;;;;;;;26.87;14.67;;;1.80;99.90;;;;;;5068831;28;20451;-49
2021/03/01 02:10:05;;;;;;;25.87;15.17;;;1.70;99.90;;;;;;5070775;28;20460;-50
2021/03/01 02:12:45;;;;;;;26.80;14.73;;;1.70;99.90;;;;;;5065997;28;20471;-50
2021/03/01 02:15:16;;;;;;;28.90;16.30;;;1.70;99.90;;;;;;5065766;28;20994;-50
2021/03/01 02:17:43;;;;;;;28.90;15.90;;;1.60;99.90;;;;;;5070968;28;20968;-50
2021/03/01 02:20:11;;;;;;;27.23;15.20;;;1.60;99.90;;;;;;5070729;28;20956;-50
2021/03/01 02:22:39;;;;;;;31.90;15.90;;;1.70;99.90;;;;;;5070140;28;20859;-50
2021/03/01 02:25:08;;;;;;;30.40;15.00;;;1.60;99.90;;;;;;5060192;28;20471;-50
2021/03/01 02:27:39;;;;;;;24.17;14.87;;;1.60;99.90;;;;;;5061487;28;20987;-50
2021/03/01 02:30:11;;;;;;;24.50;13.80;;;1.50;99.90;;;;;;5070930;28;20816;-50
2021/03/01 02:32:39;;;;;;;27.47;13.93;;;1.40;99.90;;;;;;5069004;28;20486;-50
2021/03/01 02:35:08;;;;;;;28.37;13.23;;;1.50;99.90;;;;;;5065453;28;20494;-50
2021/03/01 02:37:37;;;;;;;25.53;14.07;;;1.50;99.90;;;;;;5051342;28;20440;-50
2021/03/01 02:40:07;;;;;;;24.80;13.67;;;1.40;99.90;;;;;;5066335;28;20511;-50
2021/03/01 02:42:36;;;;;;;26.27;13.03;;;1.40;99.90;;;;;;5068934;28;20450;-50
2021/03/01 02:45:05;;;;;;;28.97;15.07;;;1.40;99.90;;;;;;5056247;28;20491;-50
2021/03/01 02:47:32;;;;;;;24.60;13.87;;;1.40;99.90;;;;;;5063353;28;20470;-50
2021/03/01 02:50:00;;;;;;;27.57;14.10;;;1.40;99.90;;;;;;5050311;28;20451;-50
2021/03/01 02:52:28;;;;;;;29.70;14.90;;;1.40;99.90;;;;;;5057287;28;20555;-50
2021/03/01 02:54:56;;;;;;;27.37;14.00;;;1.40;99.90;;;;;;5051465;28;20956;-50
2021/03/01 02:57:24;;;;;;;28.93;14.90;;;1.40;99.90;;;;;;5066433;28;20455;-49
2021/03/01 02:59:55;;;;;;;28.50;15.30;;;1.40;99.90;;;;;;5050312;28;20498;-49
2021/03/01 03:02:24;;;;;;;28.57;13.80;;;1.30;99.90;;;;;;5051776;28;20492;-50
2021/03/01 03:04:52;;;;;;;24.20;12.60;;;1.40;99.90;;;;;;5060591;28;20841;-50
2021/03/01 03:07:20;;;;;;;24.50;13.67;;;1.40;99.90;;;;;;5062077;28;20451;-50
2021/03/01 03:09:48;;;;;;;23.80;13.37;;;1.30;99.90;;;;;;5069144;28;20451;-50
2021/03/01 03:12:16;;;;;;;22.70;12.60;;;1.30;99.90;;;;;;5068375;28;20914;-50
2021/03/01 03:14:44;;;;;;;24.77;13.13;;;1.30;99.90;;;;;;5069126;28;20454;-50
2021/03/01 03:17:12;;;;;;;25.43;13.33;;;1.30;99.90;;;;;;5066439;28;20454;-50
2021/03/01 03:19:41;;;;;;;23.97;12.40;;;1.30;99.90;;;;;;5051722;28;20875;-50
2021/03/01 03:22:08;;;;;;;20.67;11.27;;;1.20;99.90;;;;;;5070267;28;20493;-50
2021/03/01 03:24:34;;;;;;;23.13;12.60;;;1.30;99.90;;;;;;5068434;28;20446;-50
2021/03/01 03:27:01;;;;;;;29.13;14.00;;;1.30;99.90;;;;;;5069159;28;20470;-50
2021/03/01 03:29:28;;;;;;;26.73;14.17;;;1.30;99.90;;;;;;5050508;28;20451;-50
2021/03/01 03:31:56;;;;;;;26.93;14.60;;;1.20;99.90;;;;;;5051259;28;20455;-50
2021/03/01 03:34:22;;;;;;;27.43;15.13;;;1.20;99.90;;;;;;5066511;28;20520;-49
2021/03/01 03:36:54;;;;;;;23.60;12.77;;;1.20;99.90;;;;;;5063065;28;21006;-50
2021/03/01 03:39:20;;;;;;;22.27;12.60;;;1.20;99.90;;;;;;5070027;28;20461;-49
2021/03/01 03:41:48;;;;;;;21.73;12.87;;;1.20;99.90;;;;;;5058402;28;20510;-50
2021/03/01 03:44:17;;;;;;;22.00;12.13;;;1.20;99.90;;;;;;5067862;28;20491;-50
2021/03/01 03:46:43;;;;;;;22.93;12.87;;;1.20;99.90;;;;;;5049791;28;20472;-49
2021/03/01 03:49:14;;;;;;;22.80;12.60;;;1.00;99.90;;;;;;5053668;28;20454;-50
2021/03/01 03:51:44;;;;;;;25.10;13.43;;;1.10;99.90;;;;;;5053457;28;20941;-50
2021/03/01 03:54:18;;;;;;;22.77;12.43;;;1.00;99.90;;;;;;5067125;28;20503;-49
2021/03/01 03:56:52;;;;;;;21.23;12.20;;;0.80;99.90;;;;;;5054721;28;20469;-50
2021/03/01 03:59:21;;;;;;;22.67;12.30;;;0.70;99.90;;;;;;5070404;28;20453;-50
2021/03/01 04:01:51;;;;;;;19.27;11.23;;;0.50;99.90;;;;;;5060956;28;20504;-50
2021/03/01 04:04:20;;;;;;;23.97;10.97;;;0.60;99.90;;;;;;5072707;28;20458;-49
2021/03/01 04:06:47;;;;;;;19.33;12.00;;;0.60;99.90;;;;;;5072552;28;20990;-49
2021/03/01 04:09:15;;;;;;;22.73;11.20;;;0.70;99.90;;;;;;5072757;28;20454;-50
2021/03/01 04:11:44;;;;;;;18.77;10.80;;;0.70;99.90;;;;;;5071386;28;20481;-50
2021/03/01 04:14:15;;;;;;;18.57;11.07;;;0.70;99.90;;;;;;5058223;28;20451;-49
2021/03/01 04:16:45;;;;;;;21.50;11.10;;;0.80;99.90;;;;;;5052895;28;21063;-50
2021/03/01 04:19:13;;;;;;;19.77;11.67;;;0.60;99.90;;;;;;5054547;28;20457;-50
2021/03/01 04:21:42;;;;;;;20.33;11.93;;;0.40;99.90;;;;;;5058919;28;21213;-50
2021/03/01 04:24:13;;;;;;;19.43;11.27;;;0.40;99.90;;;;;;5068535;28;20450;-50
2021/03/01 04:26:42;;;;;;;26.57;11.63;;;0.50;99.90;;;;;;5067588;28;20470;-50
2021/03/01 04:29:10;;;;;;;20.77;11.10;;;0.70;99.90;;;;;;5072573;28;21106;-50
2021/03/01 04:31:38;;;;;;;21.07;11.10;;;0.70;99.90;;;;;;5071901;28;20453;-50
2021/03/01 04:34:08;;;;;;;17.70;10.10;;;0.70;99.90;;;;;;5067949;28;20467;-50
2021/03/01 04:36:35;;;;;;;17.90;10.80;;;0.70;99.90;;;;;;5067381;28;20864;-50
2021/03/01 04:39:03;;;;;;;19.13;11.20;;;0.70;99.90;;;;;;5054865;28;21018;-50
2021/03/01 04:41:30;;;;;;;20.53;11.07;;;0.70;99.90;;;;;;5055736;28;20562;-50
2021/03/01 04:43:58;;;;;;;18.17;11.10;;;0.70;99.90;;;;;;5067980;28;20458;-50
2021/03/01 04:46:25;;;;;;;21.10;10.90;;;0.70;99.90;;;;;;5056564;28;20475;-50
2021/03/01 04:48:52;;;;;;;18.87;10.90;;;0.70;99.90;;;;;;5058716;28;20448;-49
2021/03/01 04:51:19;;;;;;;19.37;10.90;;;0.70;99.90;;;;;;5072269;28;20449;-50
2021/03/01 04:53:46;;;;;;;21.77;10.87;;;0.70;99.90;;;;;;5055368;28;20451;-50
2021/03/01 04:56:14;;;;;;;18.97;10.30;;;0.80;99.90;;;;;;5052103;28;20471;-50
2021/03/01 04:58:42;;;;;;;18.97;11.27;;;0.70;99.90;;;;;;5051880;28;20964;-50
2021/03/01 05:01:09;;;;;;;20.83;11.10;;;0.60;99.90;;;;;;5058912;28;20551;-50
2021/03/01 05:03:38;;;;;;;21.00;10.97;;;0.70;99.90;;;;;;5062228;28;20450;-50
2021/03/01 05:06:05;;;;;;;16.73;10.63;;;0.70;99.90;;;;;;5051844;28;20467;-50
2021/03/01 05:08:35;;;;;;;19.27;11.03;;;0.70;99.90;;;;;;5052056;28;20457;-49
2021/03/01 05:11:05;;;;;;;18.50;11.17;;;0.70;99.90;;;;;;5052109;28;20568;-51
2021/03/01 05:13:33;;;;;;;19.53;11.27;;;0.60;99.90;;;;;;5052409;28;20455;-50
2021/03/01 05:16:00;;;;;;;20.27;11.10;;;0.60;99.90;;;;;;5060515;28;20473;-50
2021/03/01 05:18:28;;;;;;;19.07;10.43;;;0.60;99.90;;;;;;5071768;28;20442;-50
2021/03/01 05:20:55;;;;;;;19.50;10.80;;;0.60;99.90;;;;;;5071970;28;20489;-50
2021/03/01 05:23:21;;;;;;;20.73;10.73;;;0.60;99.90;;;;;;5071807;28;21010;-49
2021/03/01 05:25:48;;;;;;;21.67;10.90;;;0.60;99.90;;;;;;5071410;28;20473;-50
2021/03/01 05:28:15;;;;;;;18.50;11.50;;;0.60;99.90;;;;;;5066509;28;20458;-50
2021/03/01 05:30:42;;;;;;;20.93;11.50;;;0.50;99.90;;;;;;5051822;28;20454;-50
2021/03/01 05:33:09;;;;;;;19.90;10.60;;;0.50;99.90;;;;;;5051838;28;20447;-50
2021/03/01 05:35:35;;;;;;;21.33;12.20;;;0.50;99.90;;;;;;5051699;28;20493;-50
2021/03/01 05:38:02;;;;;;;26.43;11.97;;;0.50;99.90;;;;;;5061836;28;20853;-49
2021/03/01 05:40:28;;;;;;;22.90;11.77;;;0.50;99.90;;;;;;5071740;28;20449;-50
2021/03/01 05:42:58;;;;;;;25.07;11.80;;;0.50;99.90;;;;;;5060945;28;20992;-50
2021/03/01 05:45:25;;;;;;;20.87;12.27;;;0.50;99.90;;;;;;5054535;28;20494;-50
2021/03/01 05:47:52;;;;;;;16.67;11.70;;;0.50;99.90;;;;;;5055416;28;20466;-49
2021/03/01 05:50:19;;;;;;;24.27;12.80;;;0.40;99.90;;;;;;5054458;28;20451;-50
2021/03/01 05:52:49;;;;;;;22.87;12.70;;;0.30;99.90;;;;;;5066496;28;20455;-49
2021/03/01 05:55:16;;;;;;;22.77;12.10;;;0.40;99.90;;;;;;5051865;28;20463;-50
2021/03/01 05:57:44;;;;;;;25.00;13.37;;;0.40;99.90;;;;;;5060464;28;20483;-50
2021/03/01 06:00:13;;;;;;;22.47;12.20;;;0.40;99.90;;;;;;5051202;28;20455;-50
2021/03/01 06:02:40;;;;;;;21.37;12.40;;;0.40;99.90;;;;;;5051057;28;20900;-50
2021/03/01 06:05:09;;;;;;;24.80;13.70;;;0.40;99.90;;;;;;5051250;28;20490;-50
2021/03/01 06:07:36;;;;;;;19.50;12.80;;;0.40;99.90;;;;;;5051694;28;20955;-50
2021/03/01 06:10:05;;;;;;;23.40;11.80;;;0.30;99.90;;;;;;5062144;28;20451;-49
2021/03/01 06:12:32;;;;;;;24.43;13.00;;;0.30;99.90;;;;;;5067446;28;20438;-50
2021/03/01 06:14:59;;;;;;;24.50;13.30;;;0.40;99.90;;;;;;5066804;28;20497;-49
2021/03/01 06:17:26;;;;;;;23.80;12.80;;;0.40;99.90;;;;;;5050952;28;20957;-50
2021/03/01 06:19:54;;;;;;;25.63;13.83;;;0.40;99.90;;;;;;5061935;28;20450;-50
2021/03/01 06:22:23;;;;;;;27.70;15.53;;;0.40;99.90;;;;;;5053582;28;20483;-50
2021/03/01 06:25:05;;;;;;;25.77;14.87;;;0.40;99.90;;;;;;5055670;28;20439;-50
2021/03/01 06:27:32;;;;;;;32.97;17.67;;;0.50;99.90;;;;;;5064141;28;20451;-49
2021/03/01 06:30:07;;;;;;;27.93;15.53;;;0.50;99.90;;;;;;5065739;28;20442;-50
2021/03/01 06:32:35;;;;;;;34.63;17.33;;;0.50;99.90;;;;;;5052803;28;20975;-50
2021/03/01 06:35:02;;;;;;;30.10;16.20;;;0.50;99.90;;;;;;5050372;28;20899;-50
2021/03/01 06:37:30;;;;;;;29.70;16.57;;;0.60;99.90;;;;;;5055988;28;20455;-49
2021/03/01 06:39:57;;;;;;;28.73;14.83;;;0.70;99.90;;;;;;5068927;28;20451;-49
2021/03/01 06:42:28;;;;;;;25.70;14.97;;;0.80;99.90;;;;;;5057725;28;20998;-50
2021/03/01 06:45:15;;;;;;;29.93;15.40;;;0.90;99.90;;;;;;5051474;28;20831;-50
2021/03/01 06:47:48;;;;;;;30.23;14.57;;;1.00;99.90;;;;;;5058538;28;20795;-50
2021/03/01 06:50:31;;;;;;;28.50;15.87;;;1.00;99.90;;;;;;5066597;28;21066;-49
2021/03/01 06:53:03;;;;;;;27.83;14.57;;;1.10;99.90;;;;;;5061763;28;20450;-50
2021/03/01 06:55:30;;;;;;;26.70;15.27;;;1.20;99.90;;;;;;5070273;28;20467;-49
2021/03/01 06:57:57;;;;;;;25.57;13.97;;;1.40;99.90;;;;;;5070728;28;20853;-50
2021/03/01 07:00:27;;;;;;;25.03;14.13;;;1.70;99.90;;;;;;5080150;22;20560;-52
2021/03/01 07:02:55;;;;;;;23.17;13.80;;;2.00;99.90;;;;;;5065969;28;20566;-50
2021/03/01 07:05:22;;;;;;;21.13;12.63;;;2.30;99.90;;;;;;5050082;28;20443;-50
2021/03/01 07:07:49;;;;;;;22.53;13.93;;;2.50;99.90;;;;;;5050318;28;20447;-52
2021/03/01 07:10:17;;;;;;;24.50;13.90;;;2.70;99.90;;;;;;5050174;28;20523;-51
2021/03/01 07:12:46;;;;;;;24.57;13.00;;;2.80;99.90;;;;;;5036098;28;20805;-51
2021/03/01 07:15:14;;;;;;;20.70;12.20;;;2.90;99.90;;;;;;5030595;28;20817;-51
2021/03/01 07:17:42;;;;;;;25.33;16.90;;;3.00;99.90;;;;;;5040259;28;20435;-50
2021/03/01 07:20:12;;;;;;;23.43;14.90;;;3.10;99.90;;;;;;5048401;28;20225;-52
2021/03/01 07:22:39;;;;;;;31.10;15.70;;;3.10;99.90;;;;;;5052292;28;20479;-52
2021/03/01 07:25:08;;;;;;;26.17;14.90;;;3.20;99.90;;;;;;5053551;28;20451;-51
2021/03/01 07:27:39;;;;;;;24.93;14.90;;;3.20;99.90;;;;;;5052078;28;20509;-51
2021/03/01 07:30:08;;;;;;;26.33;15.43;;;3.40;99.90;;;;;;5034267;28;20815;-52
2021/03/01 07:32:37;;;;;;;25.57;13.77;;;3.20;99.90;;;;;;5042730;28;20451;-51
2021/03/01 07:35:05;;;;;;;26.80;14.60;;;3.20;99.90;;;;;;5053210;28;20447;-52
2021/03/01 07:37:34;;;;;;;25.60;14.80;;;3.20;99.90;;;;;;5053656;28;20443;-53
2021/03/01 07:40:01;;;;;;;26.73;14.87;;;3.30;99.90;;;;;;5054370;28;20468;-51
2021/03/01 07:42:30;;;;;;;25.20;14.40;;;3.50;99.90;;;;;;5042656;28;20482;-53
2021/03/01 07:44:57;;;;;;;32.87;15.63;;;3.60;99.90;;;;;;5032976;28;20448;-52
2021/03/01 07:47:28;;;;;;;27.93;15.80;;;3.90;99.90;;;;;;5033299;28;20455;-53
2021/03/01 07:49:54;;;;;;;27.57;14.50;;;3.90;99.90;;;;;;5046233;28;21003;-52
2021/03/01 07:52:38;;;;;;;22.63;13.43;;;4.00;99.90;;;;;;5051661;28;20944;-52
2021/03/01 07:55:07;;;;;;;23.80;16.00;;;4.40;99.90;;;;;;5052507;28;20540;-52
2021/03/01 07:57:35;;;;;;;24.97;14.87;;;4.80;99.90;;;;;;5052023;28;20455;-51
2021/03/01 08:00:25;;;;;;;29.30;15.20;;;5.20;99.90;;;;;;5051950;28;20513;-52
2021/03/01 08:02:52;;;;;;;24.30;13.70;;;5.50;99.90;;;;;;5052704;28;20483;-52
2021/03/01 08:05:24;;;;;;;25.23;14.40;;;6.00;99.90;;;;;;5052499;28;20462;-54
2021/03/01 08:07:51;;;;;;;26.67;13.87;;;6.30;99.90;;;;;;5052813;28;20475;-54
2021/03/01 08:10:44;;;;;;;20.23;13.83;;;6.60;99.90;;;;;;5052350;28;20496;-53
2021/03/01 08:13:11;;;;;;;21.17;12.97;;;6.70;99.90;;;;;;5040876;28;20453;-52
2021/03/01 08:15:40;;;;;;;28.87;15.00;;;7.10;99.90;;;;;;5034714;28;20445;-53
2021/03/01 08:18:09;;;;;;;23.57;13.20;;;7.50;99.90;;;;;;5052351;28;20474;-52
2021/03/01 08:21:03;;;;;;;20.13;12.20;;;7.80;99.90;;;;;;5050209;28;20842;-53
2021/03/01 08:23:33;;;;;;;18.93;12.17;;;8.20;99.90;;;;;;5016694;28;20462;-53
2021/03/01 08:26:02;;;;;;;21.97;13.03;;;8.40;99.90;;;;;;5049374;28;20450;-53
2021/03/01 08:28:46;;;;;;;20.63;13.00;;;8.50;99.90;;;;;;5034581;28;20860;-54
2021/03/01 08:31:41;;;;;;;23.20;13.20;;;8.20;99.90;;;;;;5052253;28;20447;-53
2021/03/01 08:34:30;;;;;;;21.90;13.50;;;8.60;99.90;;;;;;5051376;28;21071;-53
2021/03/01 08:36:58;;;;;;;22.67;13.23;;;8.20;99.90;;;;;;5052068;28;20448;-53
2021/03/01 08:40:01;;;;;;;23.70;13.50;;;8.10;99.90;;;;;;5051822;28;21097;-52
2021/03/01 08:42:54;;;;;;;21.17;13.87;;;8.30;99.90;;;;;;5048294;28;20487;-53
2021/03/01 08:45:40;;;;;;;22.53;13.40;;;8.30;99.90;;;;;;5032146;28;20535;-54
2021/03/01 08:48:15;;;;;;;26.10;13.10;;;8.20;99.90;;;;;;5045384;28;20455;-54
2021/03/01 08:50:43;;;;;;;20.73;12.83;;;8.60;99.90;;;;;;5068043;28;20489;-52
2021/03/01 08:53:11;;;;;;;21.83;12.70;;;9.30;99.90;;;;;;5069482;28;20450;-53
2021/03/01 08:55:38;;;;;;;20.20;12.13;;;9.70;99.90;;;;;;5051206;28;20455;-53
2021/03/01 08:58:08;;;;;;;18.97;12.20;;;10.10;99.90;;;;;;5067349;28;20447;-54
2021/03/01 09:00:36;;;;;;;16.90;11.93;;;10.50;99.90;;;;;;5033217;28;20476;-54
2021/03/01 09:03:28;;;;;;;22.87;12.43;;;11.10;99.90;;;;;;5046543;28;20480;-54
2021/03/01 09:06:04;;;;;;;21.60;12.43;;;11.30;99.90;;;;;;5032826;28;20487;-52
2021/03/01 09:08:32;;;;;;;18.70;12.07;;;11.30;99.90;;;;;;5051011;28;20978;-52
2021/03/01 09:11:01;;;;;;;21.40;12.20;;;11.60;99.90;;;;;;5051289;28;20463;-53
2021/03/01 09:13:28;;;;;;;18.23;12.23;;;11.30;99.90;;;;;;5051771;28;20447;-53
2021/03/01 09:15:55;;;;;;;15.83;10.43;;;11.10;99.90;;;;;;5051926;28;20945;-52
2021/03/01 09:18:27;;;;;;;15.10;10.73;;;11.30;99.90;;;;;;5050737;28;20444;-54
2021/03/01 09:20:57;;;;;;;13.80;10.27;;;11.30;99.90;;;;;;5062441;28;20482;-53
2021/03/01 09:23:36;;;;;;;14.00;9.50;;;11.30;99.90;;;;;;5072009;28;20496;-53
2021/03/01 09:26:03;;;;;;;14.87;10.77;;;11.50;99.90;;;;;;5051601;28;20527;-52
2021/03/01 09:28:32;;;;;;;13.27;10.03;;;10.80;99.90;;;;;;5051417;28;20972;-53
2021/03/01 09:31:07;;;;;;;13.60;9.97;;;11.00;99.90;;;;;;5031301;28;20970;-52
2021/03/01 09:33:35;;;;;;;14.57;10.17;;;11.80;99.90;;;;;;5031509;28;20447;-52
2021/03/01 09:36:03;;;;;;;12.70;10.07;;;12.00;99.90;;;;;;5032629;28;21129;-52
2021/03/01 09:38:30;;;;;;;13.73;9.47;;;12.60;99.90;;;;;;5051340;28;20448;-52
2021/03/01 09:40:58;;;;;;;15.33;10.50;;;12.60;99.90;;;;;;5050680;28;20467;-53
2021/03/01 09:43:25;;;;;;;15.10;10.67;;;12.70;99.90;;;;;;5051017;28;20448;-53
2021/03/01 09:45:53;;;;;;;15.13;10.40;;;12.90;99.90;;;;;;5049006;28;20452;-54
2021/03/01 09:48:19;;;;;;;14.27;10.20;;;12.70;99.90;;;;;;5050579;28;20443;-53
2021/03/01 09:50:47;;;;;;;16.57;10.00;;;12.80;99.90;;;;;;5062922;28;21041;-53
2021/03/01 09:53:16;;;;;;;13.60;10.37;;;13.10;99.90;;;;;;5070964;28;20466;-54
2021/03/01 09:55:44;;;;;;;16.60;10.90;;;13.10;99.90;;;;;;5050983;28;20447;-54
2021/03/01 09:58:29;;;;;;;19.03;11.97;;;13.10;99.90;;;;;;5050653;28;20448;-55
2021/03/01 10:01:10;;;;;;;18.23;11.57;;;11.60;99.90;;;;;;5050415;28;20471;-53
2021/03/01 10:03:39;;;;;;;16.40;11.70;;;11.00;99.90;;;;;;5047469;28;20447;-54
2021/03/01 10:06:07;;;;;;;14.20;10.20;;;11.30;99.90;;;;;;5050299;28;20471;-53
2021/03/01 10:08:35;;;;;;;15.73;9.80;;;11.40;99.90;;;;;;5037457;28;20473;-52
2021/03/01 10:11:02;;;;;;;16.67;10.60;;;12.40;99.90;;;;;;5030559;28;20476;-53
2021/03/01 10:13:32;;;;;;;17.47;11.30;;;12.30;99.90;;;;;;5030635;28;20449;-50
2021/03/01 10:16:00;;;;;;;21.10;12.07;;;11.60;99.90;;;;;;5030622;28;20476;-52
2021/03/01 10:18:29;;;;;;;17.10;11.43;;;10.00;99.90;;;;;;5031568;28;20850;-50
2021/03/01 10:20:59;;;;;;;18.10;12.70;;;9.10;99.90;;;;;;5045021;28;20472;-53
2021/03/01 10:23:35;;;;;;;21.20;12.33;;;9.70;99.90;;;;;;5050265;28;20487;-51
2021/03/01 10:26:14;;;;;;;19.63;12.53;;;10.30;99.90;;;;;;5050542;28;20451;-51
2021/03/01 10:28:43;;;;;;;23.47;12.87;;;10.70;99.90;;;;;;5050589;28;20461;-51
2021/03/01 10:31:12;;;;;;;22.33;13.13;;;9.90;99.90;;;;;;5050355;28;20533;-50
2021/03/01 10:33:53;;;;;;;21.03;13.03;;;9.40;99.90;;;;;;5049614;28;20455;-51
2021/03/01 10:36:21;;;;;;;20.37;12.43;;;9.80;99.90;;;;;;5030397;28;20453;-52
2021/03/01 10:39:00;;;;;;;23.57;12.90;;;10.00;99.90;;;;;;5030376;28;20452;-51
2021/03/01 10:41:29;;;;;;;18.37;12.17;;;9.50;99.90;;;;;;5037868;28;20996;-53
2021/03/01 10:43:59;;;;;;;20.07;13.27;;;9.70;99.90;;;;;;5049921;28;20440;-52
2021/03/01 10:46:34;;;;;;;20.97;12.57;;;9.90;99.90;;;;;;5050121;28;20459;-53
2021/03/01 10:49:02;;;;;;;21.80;13.27;;;10.80;99.90;;;;;;5050140;28;20504;-53
2021/03/01 10:51:28;;;;;;;21.83;13.83;;;10.00;99.90;;;;;;5047397;28;20444;-53
2021/03/01 10:53:56;;;;;;;21.40;12.70;;;9.60;99.90;;;;;;5049519;28;20448;-54
2021/03/01 10:56:22;;;;;;;19.63;13.13;;;10.30;99.90;;;;;;5050584;28;20906;-53
2021/03/01 10:58:50;;;;;;;22.50;14.27;;;9.80;99.90;;;;;;5054170;28;20983;-53
2021/03/01 11:01:17;;;;;;;24.73;13.87;;;9.10;99.90;;;;;;5053897;28;21018;-54
2021/03/01 11:03:45;;;;;;;24.73;15.10;;;9.20;99.90;;;;;;5054056;28;20460;-53
2021/03/01 11:06:13;;;;;;;23.07;14.10;;;8.60;99.90;;;;;;5052256;28;20463;-53
2021/03/01 11:08:40;;;;;;;23.10;13.67;;;8.70;99.90;;;;;;5053579;28;20534;-53
2021/03/01 11:11:07;;;;;;;20.13;13.27;;;8.70;99.90;;;;;;5041629;28;20566;-53
2021/03/01 11:13:34;;;;;;;24.07;13.57;;;8.80;99.90;;;;;;5064148;28;20443;-53
2021/03/01 11:16:01;;;;;;;29.07;14.00;;;8.60;99.90;;;;;;5073818;28;20815;-53
2021/03/01 11:18:27;;;;;;;24.87;13.80;;;8.10;99.90;;;;;;5056589;28;20911;-52
2021/03/01 11:20:54;;;;;;;23.07;14.20;;;8.20;99.90;;;;;;5046411;28;20465;-53
2021/03/01 11:23:20;;;;;;;22.10;13.63;;;8.30;99.90;;;;;;5036407;28;20482;-53
2021/03/01 11:25:47;;;;;;;22.10;11.70;;;8.70;99.90;;;;;;5034402;28;21001;-52
2021/03/01 11:28:15;;;;;;;17.00;11.57;;;9.10;99.90;;;;;;5033887;28;20452;-52
2021/03/01 11:30:41;;;;;;;19.00;12.03;;;9.60;99.90;;;;;;5051187;28;20480;-53
2021/03/01 11:33:08;;;;;;;22.23;12.97;;;9.60;99.90;;;;;;5053625;28;20443;-52
2021/03/01 11:35:35;;;;;;;21.27;13.07;;;9.30;99.90;;;;;;5053368;28;20848;-53
2021/03/01 11:38:02;;;;;;;19.47;11.80;;;9.60;99.90;;;;;;5040215;28;20859;-52
2021/03/01 11:40:29;;;;;;;21.63;13.07;;;9.80;99.90;;;;;;5033662;28;20464;-52
2021/03/01 11:42:55;;;;;;;20.07;12.17;;;10.10;99.90;;;;;;5033318;28;21059;-53
2021/03/01 11:45:23;;;;;;;19.57;12.37;;;10.10;99.90;;;;;;5033341;28;20503;-52
2021/03/01 11:47:49;;;;;;;20.40;12.87;;;9.90;99.90;;;;;;5033456;28;20456;-52
2021/03/01 11:50:17;;;;;;;22.50;13.20;;;9.40;99.90;;;;;;5033246;28;20469;-53
2021/03/01 11:52:44;;;;;;;18.53;12.13;;;9.30;99.90;;;;;;5033029;28;20490;-51
2021/03/01 11:55:12;;;;;;;19.40;11.83;;;9.60;99.90;;;;;;5051870;28;20447;-52
2021/03/01 11:57:39;;;;;;;21.07;12.83;;;9.60;99.90;;;;;;5037694;28;20856;-53
2021/03/01 12:00:07;;;;;;;22.87;12.83;;;9.50;99.90;;;;;;5033042;28;21001;-53
2021/03/01 12:02:35;;;;;;;18.60;11.63;;;9.70;99.90;;;;;;5015428;28;21009;-52
2021/03/01 12:05:01;;;;;;;22.60;12.17;;;10.10;99.90;;;;;;5032824;28;20454;-53
2021/03/01 12:07:28;;;;;;;20.70;12.50;;;10.20;99.90;;;;;;5051669;28;20448;-52
2021/03/01 12:09:55;;;;;;;21.00;13.20;;;10.30;99.90;;;;;;5051209;28;20471;-52
2021/03/01 12:12:21;;;;;;;22.27;12.10;;;10.10;99.90;;;;;;5053338;28;20448;-52
2021/03/01 12:14:48;;;;;;;21.53;13.33;;;10.30;99.90;;;;;;5052850;28;20456;-53
2021/03/01 12:17:15;;;;;;;21.10;13.10;;;10.00;99.90;;;;;;5052796;28;20447;-53
2021/03/01 12:19:42;;;;;;;19.90;13.10;;;9.70;99.90;;;;;;5052645;28;20471;-52
2021/03/01 12:22:09;;;;;;;19.87;12.40;;;9.60;99.90;;;;;;5052413;28;20479;-53
2021/03/01 12:24:35;;;;;;;19.47;11.97;;;9.90;99.90;;;;;;5062649;28;20443;-53
2021/03/01 12:27:02;;;;;;;21.70;12.03;;;10.10;99.90;;;;;;5067457;28;20487;-53
2021/03/01 12:29:28;;;;;;;19.37;12.20;;;10.30;99.90;;;;;;5052908;28;20553;-53
2021/03/01 12:31:55;;;;;;;20.58;13.45;;;10.60;99.90;;;;;;5052239;28;20952;-53
2021/03/01 12:34:22;;;;;;;17.67;11.37;;;10.60;99.90;;;;;;5050570;28;20216;-52
2021/03/01 12:36:49;;;;;;;24.83;12.57;;;10.70;99.90;;;;;;5052291;28;20454;-53
2021/03/01 12:39:16;;;;;;;20.03;12.10;;;10.30;99.90;;;;;;5052444;28;20468;-53
2021/03/01 12:41:42;;;;;;;18.93;12.13;;;10.50;99.90;;;;;;5036814;28;20514;-52
2021/03/01 12:44:11;;;;;;;21.07;13.33;;;10.60;99.90;;;;;;5032289;28;20452;-54
2021/03/01 12:46:37;;;;;;;19.23;12.03;;;10.70;99.90;;;;;;5032504;28;20445;-53